sensor_id;sensor_type;location;lat;lon;timestamp;P1;durP1;ratioP1;P2;durP2;ratioP2
12986;SDS011;58897;51.960;5.582;2023-01-01T00:00:37;9.03;;;7.10;;
12986;SDS011;58897;51.960;5.582;2023-01-01T00:03:04;20.17;;;12.80;;
12986;SDS011;58897;51.960;5.582;2023-01-01T00:05:31;14.30;;;8.90;;
12986;SDS011;58897;51.960;5.582;2023-01-01T00:07:57;10.97;;;6.90;;
12986;SDS011;58897;51.960;5.582;2023-01-01T00:10:30;15.87;;;7.57;;
12986;SDS011;58897;51.960;5.582;2023-01-01T00:12:57;13.30;;;6.83;;
12986;SDS011;58897;51.960;5.582;2023-01-01T00:15:25;13.80;;;6.50;;
12986;SDS011;58897;51.960;5.582;2023-01-01T00:17:54;11.83;;;6.23;;
12986;SDS011;58897;51.960;5.582;2023-01-01T00:20:21;10.10;;;6.17;;
12986;SDS011;58897;51.960;5.582;2023-01-01T00:22:48;8.17;;;4.20;;
12986;SDS011;58897;51.960;5.582;2023-01-01T00:25:21;8.80;;;5.13;;
12986;SDS011;58897;51.960;5.582;2023-01-01T00:27:48;8.77;;;4.20;;
12986;SDS011;58897;51.960;5.582;2023-01-01T00:30:15;11.97;;;5.47;;
12986;SDS011;58897;51.960;5.582;2023-01-01T00:32:42;10.10;;;4.30;;
12986;SDS011;58897;51.960;5.582;2023-01-01T00:35:21;7.80;;;4.03;;
12986;SDS011;58897;51.960;5.582;2023-01-01T00:37:52;8.47;;;3.67;;
12986;SDS011;58897;51.960;5.582;2023-01-01T00:40:19;14.17;;;4.13;;
12986;SDS011;58897;51.960;5.582;2023-01-01T00:42:46;8.77;;;3.50;;
12986;SDS011;58897;51.960;5.582;2023-01-01T00:45:12;11.53;;;3.80;;
12986;SDS011;58897;51.960;5.582;2023-01-01T00:47:47;6.90;;;3.43;;
12986;SDS011;58897;51.960;5.582;2023-01-01T00:50:14;14.10;;;4.10;;
12986;SDS011;58897;51.960;5.582;2023-01-01T00:52:41;8.97;;;3.50;;
12986;SDS011;58897;51.960;5.582;2023-01-01T00:55:08;8.90;;;3.93;;
12986;SDS011;58897;51.960;5.582;2023-01-01T00:57:35;8.30;;;3.10;;
12986;SDS011;58897;51.960;5.582;2023-01-01T01:00:02;9.07;;;3.27;;
12986;SDS011;58897;51.960;5.582;2023-01-01T01:02:33;8.47;;;3.67;;
12986;SDS011;58897;51.960;5.582;2023-01-01T01:05:00;9.07;;;3.20;;
12986;SDS011;58897;51.960;5.582;2023-01-01T01:07:32;6.57;;;2.60;;
12986;SDS011;58897;51.960;5.582;2023-01-01T01:10:02;6.70;;;2.50;;
12986;SDS011;58897;51.960;5.582;2023-01-01T01:12:28;5.77;;;1.80;;
12986;SDS011;58897;51.960;5.582;2023-01-01T01:14:55;7.13;;;2.80;;
12986;SDS011;58897;51.960;5.582;2023-01-01T01:17:22;6.10;;;2.60;;
12986;SDS011;58897;51.960;5.582;2023-01-01T01:19:48;3.67;;;2.57;;
12986;SDS011;58897;51.960;5.582;2023-01-01T01:22:15;9.10;;;2.73;;
12986;SDS011;58897;51.960;5.582;2023-01-01T01:24:41;5.57;;;2.43;;
12986;SDS011;58897;51.960;5.582;2023-01-01T01:27:08;7.93;;;2.40;;
12986;SDS011;58897;51.960;5.582;2023-01-01T01:29:35;6.63;;;2.33;;
12986;SDS011;58897;51.960;5.582;2023-01-01T01:32:02;7.53;;;2.03;;
12986;SDS011;58897;51.960;5.582;2023-01-01T01:34:28;4.60;;;1.90;;
12986;SDS011;58897;51.960;5.582;2023-01-01T01:36:55;5.37;;;1.83;;
12986;SDS011;58897;51.960;5.582;2023-01-01T01:39:22;5.47;;;2.07;;
12986;SDS011;58897;51.960;5.582;2023-01-01T01:41:49;5.17;;;2.23;;
12986;SDS011;58897;51.960;5.582;2023-01-01T01:47:36;4.27;;;2.40;;
12986;SDS011;58897;51.960;5.582;2023-01-01T01:55:36;3.20;;;1.83;;
12986;SDS011;58897;51.960;5.582;2023-01-01T01:58:06;5.33;;;2.50;;
12986;SDS011;58897;51.960;5.582;2023-01-01T02:00:37;5.13;;;1.87;;
12986;SDS011;58897;51.960;5.582;2023-01-01T02:03:07;4.00;;;1.60;;
12986;SDS011;58897;51.960;5.582;2023-01-01T02:05:36;7.33;;;1.60;;
12986;SDS011;58897;51.960;5.582;2023-01-01T02:08:06;7.50;;;1.77;;
12986;SDS011;58897;51.960;5.582;2023-01-01T02:10:35;4.47;;;1.30;;
12986;SDS011;58897;51.960;5.582;2023-01-01T02:13:02;4.10;;;1.43;;
12986;SDS011;58897;51.960;5.582;2023-01-01T02:15:29;3.50;;;1.97;;
12986;SDS011;58897;51.960;5.582;2023-01-01T02:18:06;5.67;;;1.50;;
12986;SDS011;58897;51.960;5.582;2023-01-01T02:23:27;5.93;;;2.67;;
12986;SDS011;58897;51.960;5.582;2023-01-01T02:31:34;5.70;;;1.63;;
12986;SDS011;58897;51.960;5.582;2023-01-01T02:34:11;5.97;;;1.83;;
12986;SDS011;58897;51.960;5.582;2023-01-01T02:36:44;5.10;;;1.70;;
12986;SDS011;58897;51.960;5.582;2023-01-01T02:39:15;10.63;;;2.20;;
12986;SDS011;58897;51.960;5.582;2023-01-01T02:41:49;4.17;;;1.40;;
12986;SDS011;58897;51.960;5.582;2023-01-01T02:44:20;4.27;;;2.10;;
12986;SDS011;58897;51.960;5.582;2023-01-01T02:46:52;4.57;;;1.83;;
12986;SDS011;58897;51.960;5.582;2023-01-01T02:49:19;9.00;;;2.23;;
12986;SDS011;58897;51.960;5.582;2023-01-01T02:54:49;5.37;;;1.80;;
12986;SDS011;58897;51.960;5.582;2023-01-01T02:57:35;6.03;;;1.50;;
12986;SDS011;58897;51.960;5.582;2023-01-01T03:00:10;8.67;;;1.73;;
12986;SDS011;58897;51.960;5.582;2023-01-01T03:08:38;2.23;;;1.30;;
12986;SDS011;58897;51.960;5.582;2023-01-01T03:11:08;5.90;;;1.70;;
12986;SDS011;58897;51.960;5.582;2023-01-01T03:13:46;2.20;;;1.13;;
12986;SDS011;58897;51.960;5.582;2023-01-01T03:21:43;7.77;;;2.00;;
12986;SDS011;58897;51.960;5.582;2023-01-01T03:24:24;7.47;;;1.90;;
12986;SDS011;58897;51.960;5.582;2023-01-01T03:26:57;4.10;;;1.47;;
12986;SDS011;58897;51.960;5.582;2023-01-01T03:29:29;5.13;;;1.70;;
12986;SDS011;58897;51.960;5.582;2023-01-01T03:32:00;5.50;;;1.73;;
12986;SDS011;58897;51.960;5.582;2023-01-01T03:34:31;6.00;;;1.67;;
12986;SDS011;58897;51.960;5.582;2023-01-01T03:37:09;3.80;;;1.30;;
12986;SDS011;58897;51.960;5.582;2023-01-01T03:39:42;2.37;;;1.00;;
12986;SDS011;58897;51.960;5.582;2023-01-01T03:42:35;6.80;;;2.03;;
12986;SDS011;58897;51.960;5.582;2023-01-01T03:45:08;2.93;;;1.37;;
12986;SDS011;58897;51.960;5.582;2023-01-01T03:47:41;3.67;;;1.63;;
12986;SDS011;58897;51.960;5.582;2023-01-01T03:50:08;2.57;;;1.17;;
12986;SDS011;58897;51.960;5.582;2023-01-01T03:55:40;4.37;;;1.57;;
12986;SDS011;58897;51.960;5.582;2023-01-01T03:58:20;11.73;;;2.30;;
12986;SDS011;58897;51.960;5.582;2023-01-01T04:00:58;10.77;;;1.60;;
12986;SDS011;58897;51.960;5.582;2023-01-01T04:03:32;4.33;;;1.30;;
12986;SDS011;58897;51.960;5.582;2023-01-01T04:06:00;2.60;;;1.43;;
12986;SDS011;58897;51.960;5.582;2023-01-01T04:08:28;6.67;;;1.40;;
12986;SDS011;58897;51.960;5.582;2023-01-01T04:10:59;2.20;;;1.10;;
12986;SDS011;58897;51.960;5.582;2023-01-01T04:13:49;2.17;;;1.10;;
12986;SDS011;58897;51.960;5.582;2023-01-01T04:16:16;4.07;;;1.20;;
12986;SDS011;58897;51.960;5.582;2023-01-01T04:18:42;3.00;;;1.27;;
12986;SDS011;58897;51.960;5.582;2023-01-01T04:21:10;4.70;;;1.40;;
12986;SDS011;58897;51.960;5.582;2023-01-01T04:23:37;2.37;;;1.37;;
12986;SDS011;58897;51.960;5.582;2023-01-01T04:26:04;6.23;;;1.83;;
12986;SDS011;58897;51.960;5.582;2023-01-01T04:28:30;2.40;;;1.30;;
12986;SDS011;58897;51.960;5.582;2023-01-01T04:31:00;6.10;;;1.20;;
12986;SDS011;58897;51.960;5.582;2023-01-01T04:33:27;5.40;;;1.27;;
12986;SDS011;58897;51.960;5.582;2023-01-01T04:35:54;2.47;;;1.10;;
12986;SDS011;58897;51.960;5.582;2023-01-01T04:38:23;3.30;;;1.30;;
12986;SDS011;58897;51.960;5.582;2023-01-01T04:40:56;3.43;;;1.37;;
12986;SDS011;58897;51.960;5.582;2023-01-01T04:43:24;2.03;;;1.20;;
12986;SDS011;58897;51.960;5.582;2023-01-01T04:45:54;6.77;;;1.60;;
12986;SDS011;58897;51.960;5.582;2023-01-01T04:48:24;4.13;;;1.77;;
12986;SDS011;58897;51.960;5.582;2023-01-01T04:50:55;4.00;;;1.10;;
12986;SDS011;58897;51.960;5.582;2023-01-01T04:53:23;6.07;;;1.40;;
12986;SDS011;58897;51.960;5.582;2023-01-01T04:55:50;6.57;;;1.53;;
12986;SDS011;58897;51.960;5.582;2023-01-01T04:58:17;5.20;;;1.80;;
12986;SDS011;58897;51.960;5.582;2023-01-01T05:00:47;4.00;;;1.30;;
12986;SDS011;58897;51.960;5.582;2023-01-01T05:03:15;5.87;;;1.63;;
12986;SDS011;58897;51.960;5.582;2023-01-01T05:05:43;9.23;;;1.80;;
12986;SDS011;58897;51.960;5.582;2023-01-01T05:08:16;6.67;;;1.80;;
12986;SDS011;58897;51.960;5.582;2023-01-01T05:10:43;5.43;;;1.37;;
12986;SDS011;58897;51.960;5.582;2023-01-01T05:13:12;20.33;;;3.00;;
12986;SDS011;58897;51.960;5.582;2023-01-01T05:15:39;3.33;;;1.60;;
12986;SDS011;58897;51.960;5.582;2023-01-01T05:18:05;4.07;;;1.30;;
12986;SDS011;58897;51.960;5.582;2023-01-01T05:20:34;3.83;;;1.50;;
12986;SDS011;58897;51.960;5.582;2023-01-01T05:23:01;4.20;;;1.73;;
12986;SDS011;58897;51.960;5.582;2023-01-01T05:25:27;5.27;;;1.50;;
12986;SDS011;58897;51.960;5.582;2023-01-01T05:27:54;5.27;;;1.60;;
12986;SDS011;58897;51.960;5.582;2023-01-01T05:30:24;5.40;;;1.67;;
12986;SDS011;58897;51.960;5.582;2023-01-01T05:32:51;5.90;;;1.37;;
12986;SDS011;58897;51.960;5.582;2023-01-01T05:35:17;12.00;;;2.57;;
12986;SDS011;58897;51.960;5.582;2023-01-01T05:37:51;2.83;;;0.87;;
12986;SDS011;58897;51.960;5.582;2023-01-01T05:40:18;7.67;;;1.90;;
12986;SDS011;58897;51.960;5.582;2023-01-01T05:42:45;2.07;;;1.10;;
12986;SDS011;58897;51.960;5.582;2023-01-01T05:45:12;2.93;;;1.30;;
12986;SDS011;58897;51.960;5.582;2023-01-01T05:47:39;4.93;;;1.00;;
12986;SDS011;58897;51.960;5.582;2023-01-01T05:50:06;2.53;;;0.90;;
12986;SDS011;58897;51.960;5.582;2023-01-01T05:52:32;2.97;;;1.03;;
12986;SDS011;58897;51.960;5.582;2023-01-01T05:54:58;3.37;;;1.10;;
12986;SDS011;58897;51.960;5.582;2023-01-01T05:57:27;2.60;;;0.93;;
12986;SDS011;58897;51.960;5.582;2023-01-01T05:59:54;3.57;;;0.97;;
12986;SDS011;58897;51.960;5.582;2023-01-01T06:02:21;4.13;;;1.10;;
12986;SDS011;58897;51.960;5.582;2023-01-01T06:04:48;1.93;;;1.00;;
12986;SDS011;58897;51.960;5.582;2023-01-01T06:07:14;3.00;;;0.87;;
12986;SDS011;58897;51.960;5.582;2023-01-01T06:09:41;3.73;;;0.70;;
12986;SDS011;58897;51.960;5.582;2023-01-01T06:12:08;5.10;;;1.20;;
12986;SDS011;58897;51.960;5.582;2023-01-01T06:14:35;0.90;;;0.40;;
12986;SDS011;58897;51.960;5.582;2023-01-01T06:17:01;1.17;;;0.70;;
12986;SDS011;58897;51.960;5.582;2023-01-01T06:19:28;1.37;;;0.70;;
12986;SDS011;58897;51.960;5.582;2023-01-01T06:21:55;4.87;;;1.10;;
12986;SDS011;58897;51.960;5.582;2023-01-01T06:24:21;2.03;;;0.93;;
12986;SDS011;58897;51.960;5.582;2023-01-01T06:26:48;1.70;;;0.90;;
12986;SDS011;58897;51.960;5.582;2023-01-01T06:29:15;2.50;;;0.97;;
12986;SDS011;58897;51.960;5.582;2023-01-01T06:31:44;1.73;;;0.83;;
12986;SDS011;58897;51.960;5.582;2023-01-01T06:34:11;12.83;;;1.90;;
12986;SDS011;58897;51.960;5.582;2023-01-01T06:36:37;1.93;;;0.80;;
12986;SDS011;58897;51.960;5.582;2023-01-01T06:39:14;3.60;;;0.50;;
12986;SDS011;58897;51.960;5.582;2023-01-01T06:41:41;1.77;;;0.90;;
12986;SDS011;58897;51.960;5.582;2023-01-01T06:44:08;6.67;;;1.73;;
12986;SDS011;58897;51.960;5.582;2023-01-01T06:46:35;5.10;;;1.00;;
12986;SDS011;58897;51.960;5.582;2023-01-01T06:49:05;2.20;;;0.90;;
12986;SDS011;58897;51.960;5.582;2023-01-01T06:51:36;3.20;;;1.07;;
12986;SDS011;58897;51.960;5.582;2023-01-01T06:54:04;12.07;;;1.63;;
12986;SDS011;58897;51.960;5.582;2023-01-01T06:56:31;2.57;;;1.07;;
12986;SDS011;58897;51.960;5.582;2023-01-01T06:58:59;3.67;;;1.10;;
12986;SDS011;58897;51.960;5.582;2023-01-01T07:01:27;2.10;;;1.13;;
12986;SDS011;58897;51.960;5.582;2023-01-01T07:03:59;1.63;;;0.63;;
12986;SDS011;58897;51.960;5.582;2023-01-01T07:06:28;3.90;;;0.60;;
12986;SDS011;58897;51.960;5.582;2023-01-01T07:08:56;1.30;;;0.50;;
12986;SDS011;58897;51.960;5.582;2023-01-01T07:11:23;4.10;;;1.27;;
12986;SDS011;58897;51.960;5.582;2023-01-01T07:13:50;2.20;;;1.00;;
12986;SDS011;58897;51.960;5.582;2023-01-01T07:16:17;3.43;;;0.60;;
12986;SDS011;58897;51.960;5.582;2023-01-01T07:18:44;1.40;;;0.67;;
12986;SDS011;58897;51.960;5.582;2023-01-01T07:21:25;5.73;;;1.03;;
12986;SDS011;58897;51.960;5.582;2023-01-01T07:23:56;3.50;;;0.83;;
12986;SDS011;58897;51.960;5.582;2023-01-01T07:26:24;2.43;;;0.70;;
12986;SDS011;58897;51.960;5.582;2023-01-01T07:28:51;1.27;;;0.40;;
12986;SDS011;58897;51.960;5.582;2023-01-01T07:31:19;6.77;;;1.37;;
12986;SDS011;58897;51.960;5.582;2023-01-01T07:33:46;2.27;;;1.10;;
12986;SDS011;58897;51.960;5.582;2023-01-01T07:36:13;5.30;;;1.30;;
12986;SDS011;58897;51.960;5.582;2023-01-01T07:38:39;4.77;;;0.70;;
12986;SDS011;58897;51.960;5.582;2023-01-01T07:41:06;3.90;;;1.07;;
12986;SDS011;58897;51.960;5.582;2023-01-01T07:43:36;3.50;;;1.17;;
12986;SDS011;58897;51.960;5.582;2023-01-01T07:46:03;2.03;;;0.53;;
12986;SDS011;58897;51.960;5.582;2023-01-01T07:48:30;2.43;;;0.80;;
12986;SDS011;58897;51.960;5.582;2023-01-01T07:51:05;4.13;;;1.07;;
12986;SDS011;58897;51.960;5.582;2023-01-01T07:53:31;2.57;;;0.70;;
12986;SDS011;58897;51.960;5.582;2023-01-01T07:55:58;4.43;;;0.93;;
12986;SDS011;58897;51.960;5.582;2023-01-01T07:58:25;2.43;;;0.80;;
12986;SDS011;58897;51.960;5.582;2023-01-01T08:00:51;2.43;;;0.50;;
12986;SDS011;58897;51.960;5.582;2023-01-01T08:03:18;3.93;;;0.80;;
12986;SDS011;58897;51.960;5.582;2023-01-01T08:05:45;1.93;;;0.47;;
12986;SDS011;58897;51.960;5.582;2023-01-01T08:08:14;5.27;;;1.03;;
12986;SDS011;58897;51.960;5.582;2023-01-01T08:10:40;2.40;;;0.53;;
12986;SDS011;58897;51.960;5.582;2023-01-01T08:13:07;4.67;;;0.97;;
12986;SDS011;58897;51.960;5.582;2023-01-01T08:15:34;3.47;;;0.90;;
12986;SDS011;58897;51.960;5.582;2023-01-01T08:18:02;2.73;;;1.10;;
12986;SDS011;58897;51.960;5.582;2023-01-01T08:20:30;4.10;;;0.93;;
12986;SDS011;58897;51.960;5.582;2023-01-01T08:22:57;3.30;;;1.00;;
12986;SDS011;58897;51.960;5.582;2023-01-01T08:25:32;2.80;;;0.70;;
12986;SDS011;58897;51.960;5.582;2023-01-01T08:27:58;2.60;;;0.77;;
12986;SDS011;58897;51.960;5.582;2023-01-01T08:30:25;4.63;;;1.47;;
12986;SDS011;58897;51.960;5.582;2023-01-01T08:32:51;4.73;;;1.40;;
12986;SDS011;58897;51.960;5.582;2023-01-01T08:35:18;8.13;;;1.70;;
12986;SDS011;58897;51.960;5.582;2023-01-01T08:37:45;6.13;;;1.30;;
12986;SDS011;58897;51.960;5.582;2023-01-01T08:40:11;3.97;;;1.20;;
12986;SDS011;58897;51.960;5.582;2023-01-01T08:42:38;2.90;;;0.73;;
12986;SDS011;58897;51.960;5.582;2023-01-01T08:45:05;4.47;;;1.27;;
12986;SDS011;58897;51.960;5.582;2023-01-01T08:47:33;5.20;;;1.10;;
12986;SDS011;58897;51.960;5.582;2023-01-01T08:49:59;2.00;;;0.60;;
12986;SDS011;58897;51.960;5.582;2023-01-01T08:52:26;5.33;;;1.00;;
12986;SDS011;58897;51.960;5.582;2023-01-01T08:54:53;1.57;;;0.90;;
12986;SDS011;58897;51.960;5.582;2023-01-01T08:57:19;9.10;;;1.43;;
12986;SDS011;58897;51.960;5.582;2023-01-01T08:59:46;3.17;;;0.90;;
12986;SDS011;58897;51.960;5.582;2023-01-01T09:02:13;4.63;;;1.17;;
12986;SDS011;58897;51.960;5.582;2023-01-01T09:04:40;3.13;;;0.60;;
12986;SDS011;58897;51.960;5.582;2023-01-01T09:07:06;8.93;;;1.30;;
12986;SDS011;58897;51.960;5.582;2023-01-01T09:09:33;2.37;;;0.53;;
12986;SDS011;58897;51.960;5.582;2023-01-01T09:12:00;3.80;;;0.70;;
12986;SDS011;58897;51.960;5.582;2023-01-01T09:14:32;3.00;;;1.30;;
12986;SDS011;58897;51.960;5.582;2023-01-01T09:16:59;5.07;;;1.33;;
12986;SDS011;58897;51.960;5.582;2023-01-01T09:19:26;4.70;;;1.23;;
12986;SDS011;58897;51.960;5.582;2023-01-01T09:21:53;2.73;;;1.30;;
12986;SDS011;58897;51.960;5.582;2023-01-01T09:24:20;10.33;;;1.90;;
12986;SDS011;58897;51.960;5.582;2023-01-01T09:26:47;4.27;;;1.13;;
12986;SDS011;58897;51.960;5.582;2023-01-01T09:29:14;5.17;;;1.60;;
12986;SDS011;58897;51.960;5.582;2023-01-01T09:31:46;5.57;;;1.07;;
12986;SDS011;58897;51.960;5.582;2023-01-01T09:34:13;3.13;;;1.20;;
12986;SDS011;58897;51.960;5.582;2023-01-01T09:36:40;4.13;;;1.33;;
12986;SDS011;58897;51.960;5.582;2023-01-01T09:39:08;3.37;;;1.20;;
12986;SDS011;58897;51.960;5.582;2023-01-01T09:47:17;4.43;;;1.10;;
12986;SDS011;58897;51.960;5.582;2023-01-01T09:49:49;5.20;;;1.10;;
12986;SDS011;58897;51.960;5.582;2023-01-01T09:52:17;5.03;;;1.23;;
12986;SDS011;58897;51.960;5.582;2023-01-01T09:57:25;4.53;;;1.10;;
12986;SDS011;58897;51.960;5.582;2023-01-01T09:59:55;2.80;;;0.70;;
12986;SDS011;58897;51.960;5.582;2023-01-01T10:02:31;3.73;;;1.03;;
12986;SDS011;58897;51.960;5.582;2023-01-01T10:08:06;6.97;;;1.23;;
12986;SDS011;58897;51.960;5.582;2023-01-01T10:10:49;1.47;;;0.83;;
12986;SDS011;58897;51.960;5.582;2023-01-01T10:13:31;5.77;;;1.57;;
12986;SDS011;58897;51.960;5.582;2023-01-01T10:16:03;5.40;;;1.07;;
12986;SDS011;58897;51.960;5.582;2023-01-01T10:18:44;1.80;;;0.73;;
12986;SDS011;58897;51.960;5.582;2023-01-01T10:21:16;8.93;;;1.57;;
12986;SDS011;58897;51.960;5.582;2023-01-01T10:26:22;3.00;;;1.40;;
12986;SDS011;58897;51.960;5.582;2023-01-01T10:31:20;4.90;;;1.57;;
12986;SDS011;58897;51.960;5.582;2023-01-01T10:33:55;3.20;;;1.13;;
12986;SDS011;58897;51.960;5.582;2023-01-01T10:36:22;8.50;;;1.53;;
12986;SDS011;58897;51.960;5.582;2023-01-01T10:38:50;6.30;;;0.93;;
12986;SDS011;58897;51.960;5.582;2023-01-01T10:41:17;6.63;;;1.37;;
12986;SDS011;58897;51.960;5.582;2023-01-01T10:43:45;4.03;;;1.50;;
12986;SDS011;58897;51.960;5.582;2023-01-01T10:46:15;7.87;;;2.53;;
12986;SDS011;58897;51.960;5.582;2023-01-01T10:49:04;3.90;;;0.80;;
12986;SDS011;58897;51.960;5.582;2023-01-01T10:51:36;5.50;;;1.50;;
12986;SDS011;58897;51.960;5.582;2023-01-01T10:56:57;5.00;;;1.30;;
12986;SDS011;58897;51.960;5.582;2023-01-01T10:59:31;4.03;;;1.00;;
12986;SDS011;58897;51.960;5.582;2023-01-01T11:02:16;5.00;;;1.17;;
12986;SDS011;58897;51.960;5.582;2023-01-01T11:04:47;3.77;;;1.30;;
12986;SDS011;58897;51.960;5.582;2023-01-01T11:07:26;6.80;;;1.47;;
12986;SDS011;58897;51.960;5.582;2023-01-01T11:09:56;3.63;;;1.20;;
12986;SDS011;58897;51.960;5.582;2023-01-01T11:12:30;4.47;;;1.47;;
12986;SDS011;58897;51.960;5.582;2023-01-01T11:15:38;3.20;;;1.20;;
12986;SDS011;58897;51.960;5.582;2023-01-01T11:18:14;8.20;;;1.27;;
12986;SDS011;58897;51.960;5.582;2023-01-01T11:21:02;4.57;;;1.23;;
12986;SDS011;58897;51.960;5.582;2023-01-01T11:23:34;4.70;;;1.40;;
12986;SDS011;58897;51.960;5.582;2023-01-01T11:28:31;4.57;;;1.93;;
12986;SDS011;58897;51.960;5.582;2023-01-01T11:33:26;5.23;;;1.90;;
12986;SDS011;58897;51.960;5.582;2023-01-01T11:35:57;10.20;;;3.03;;
12986;SDS011;58897;51.960;5.582;2023-01-01T11:38:24;8.17;;;3.47;;
12986;SDS011;58897;51.960;5.582;2023-01-01T11:40:55;6.87;;;3.10;;
12986;SDS011;58897;51.960;5.582;2023-01-01T11:43:29;5.30;;;2.60;;
12986;SDS011;58897;51.960;5.582;2023-01-01T11:46:05;5.17;;;2.27;;
12986;SDS011;58897;51.960;5.582;2023-01-01T11:48:40;4.30;;;2.53;;
12986;SDS011;58897;51.960;5.582;2023-01-01T11:51:09;5.50;;;2.33;;
12986;SDS011;58897;51.960;5.582;2023-01-01T11:53:38;8.57;;;2.90;;
12986;SDS011;58897;51.960;5.582;2023-01-01T11:58:43;6.70;;;2.07;;
12986;SDS011;58897;51.960;5.582;2023-01-01T12:04:16;4.50;;;2.40;;
12986;SDS011;58897;51.960;5.582;2023-01-01T12:07:06;9.17;;;2.70;;
12986;SDS011;58897;51.960;5.582;2023-01-01T12:09:45;5.97;;;2.90;;
12986;SDS011;58897;51.960;5.582;2023-01-01T12:12:29;5.80;;;3.63;;
12986;SDS011;58897;51.960;5.582;2023-01-01T12:15:16;9.67;;;2.77;;
12986;SDS011;58897;51.960;5.582;2023-01-01T12:17:49;3.67;;;1.87;;
12986;SDS011;58897;51.960;5.582;2023-01-01T12:20:24;12.33;;;3.00;;
12986;SDS011;58897;51.960;5.582;2023-01-01T12:22:54;4.80;;;1.90;;
12986;SDS011;58897;51.960;5.582;2023-01-01T12:25:22;6.03;;;2.57;;
12986;SDS011;58897;51.960;5.582;2023-01-01T12:36:17;8.57;;;2.57;;
12986;SDS011;58897;51.960;5.582;2023-01-01T12:41:58;7.47;;;3.10;;
12986;SDS011;58897;51.960;5.582;2023-01-01T12:53:30;15.00;;;3.37;;
12986;SDS011;58897;51.960;5.582;2023-01-01T12:56:17;10.70;;;2.47;;
12986;SDS011;58897;51.960;5.582;2023-01-01T12:59:04;10.67;;;3.13;;
12986;SDS011;58897;51.960;5.582;2023-01-01T13:01:36;11.43;;;2.97;;
12986;SDS011;58897;51.960;5.582;2023-01-01T13:04:26;6.80;;;2.37;;
12986;SDS011;58897;51.960;5.582;2023-01-01T13:06:53;9.67;;;1.50;;
12986;SDS011;58897;51.960;5.582;2023-01-01T13:09:35;7.97;;;2.40;;
12986;SDS011;58897;51.960;5.582;2023-01-01T13:12:05;8.53;;;2.40;;
12986;SDS011;58897;51.960;5.582;2023-01-01T13:14:39;8.93;;;1.97;;
12986;SDS011;58897;51.960;5.582;2023-01-01T13:17:25;9.00;;;2.00;;
12986;SDS011;58897;51.960;5.582;2023-01-01T13:22:41;5.77;;;1.70;;
12986;SDS011;58897;51.960;5.582;2023-01-01T13:38:43;8.23;;;2.37;;
12986;SDS011;58897;51.960;5.582;2023-01-01T13:49:08;8.60;;;2.77;;
12986;SDS011;58897;51.960;5.582;2023-01-01T13:51:50;6.67;;;2.10;;
12986;SDS011;58897;51.960;5.582;2023-01-01T13:54:45;9.13;;;2.17;;
12986;SDS011;58897;51.960;5.582;2023-01-01T14:02:31;8.90;;;3.37;;
12986;SDS011;58897;51.960;5.582;2023-01-01T14:05:12;13.37;;;3.33;;
12986;SDS011;58897;51.960;5.582;2023-01-01T14:07:44;6.67;;;2.73;;
12986;SDS011;58897;51.960;5.582;2023-01-01T14:12:47;10.57;;;3.83;;
12986;SDS011;58897;51.960;5.582;2023-01-01T14:17:42;7.33;;;2.83;;
12986;SDS011;58897;51.960;5.582;2023-01-01T14:20:13;6.93;;;2.67;;
12986;SDS011;58897;51.960;5.582;2023-01-01T14:22:43;5.73;;;2.77;;
12986;SDS011;58897;51.960;5.582;2023-01-01T14:25:15;9.93;;;2.80;;
12986;SDS011;58897;51.960;5.582;2023-01-01T14:27:49;6.97;;;2.20;;
12986;SDS011;58897;51.960;5.582;2023-01-01T14:30:16;9.23;;;2.40;;
12986;SDS011;58897;51.960;5.582;2023-01-01T14:32:44;12.50;;;2.50;;
12986;SDS011;58897;51.960;5.582;2023-01-01T14:35:12;8.37;;;2.27;;
12986;SDS011;58897;51.960;5.582;2023-01-01T14:37:40;6.43;;;2.67;;
12986;SDS011;58897;51.960;5.582;2023-01-01T14:42:56;5.87;;;2.37;;
12986;SDS011;58897;51.960;5.582;2023-01-01T14:45:26;5.13;;;3.10;;
12986;SDS011;58897;51.960;5.582;2023-01-01T14:47:55;6.37;;;4.00;;
12986;SDS011;58897;51.960;5.582;2023-01-01T14:50:29;10.00;;;3.23;;
12986;SDS011;58897;51.960;5.582;2023-01-01T14:53:02;8.13;;;2.83;;
12986;SDS011;58897;51.960;5.582;2023-01-01T14:55:32;10.40;;;3.70;;
12986;SDS011;58897;51.960;5.582;2023-01-01T14:58:03;12.03;;;3.70;;
12986;SDS011;58897;51.960;5.582;2023-01-01T15:00:31;8.17;;;3.77;;
12986;SDS011;58897;51.960;5.582;2023-01-01T15:03:03;9.27;;;3.80;;
12986;SDS011;58897;51.960;5.582;2023-01-01T15:05:32;8.43;;;3.97;;
12986;SDS011;58897;51.960;5.582;2023-01-01T15:08:03;6.47;;;3.73;;
12986;SDS011;58897;51.960;5.582;2023-01-01T15:10:32;8.80;;;3.50;;
12986;SDS011;58897;51.960;5.582;2023-01-01T15:13:05;9.80;;;3.60;;
12986;SDS011;58897;51.960;5.582;2023-01-01T15:15:43;9.27;;;4.60;;
12986;SDS011;58897;51.960;5.582;2023-01-01T15:21:03;10.47;;;4.30;;
12986;SDS011;58897;51.960;5.582;2023-01-01T15:23:35;8.90;;;4.10;;
12986;SDS011;58897;51.960;5.582;2023-01-01T15:26:05;8.40;;;2.60;;
12986;SDS011;58897;51.960;5.582;2023-01-01T15:28:34;10.73;;;5.63;;
12986;SDS011;58897;51.960;5.582;2023-01-01T15:31:03;7.63;;;2.50;;
12986;SDS011;58897;51.960;5.582;2023-01-01T15:33:30;11.00;;;3.80;;
12986;SDS011;58897;51.960;5.582;2023-01-01T15:35:56;24.33;;;12.83;;
12986;SDS011;58897;51.960;5.582;2023-01-01T15:38:28;12.13;;;4.97;;
12986;SDS011;58897;51.960;5.582;2023-01-01T15:41:21;7.93;;;2.87;;
12986;SDS011;58897;51.960;5.582;2023-01-01T15:43:49;8.03;;;3.23;;
12986;SDS011;58897;51.960;5.582;2023-01-01T15:46:21;7.30;;;2.53;;
12986;SDS011;58897;51.960;5.582;2023-01-01T15:48:57;10.30;;;3.70;;
12986;SDS011;58897;51.960;5.582;2023-01-01T15:51:24;8.03;;;3.60;;
12986;SDS011;58897;51.960;5.582;2023-01-01T15:53:58;9.63;;;2.87;;
12986;SDS011;58897;51.960;5.582;2023-01-01T15:56:27;7.97;;;3.27;;
12986;SDS011;58897;51.960;5.582;2023-01-01T15:58:58;12.93;;;3.70;;
12986;SDS011;58897;51.960;5.582;2023-01-01T16:01:34;8.47;;;2.83;;
12986;SDS011;58897;51.960;5.582;2023-01-01T16:04:07;15.87;;;4.10;;
12986;SDS011;58897;51.960;5.582;2023-01-01T16:06:43;7.67;;;4.10;;
12986;SDS011;58897;51.960;5.582;2023-01-01T16:09:12;10.03;;;4.07;;
12986;SDS011;58897;51.960;5.582;2023-01-01T16:11:39;8.77;;;3.30;;
12986;SDS011;58897;51.960;5.582;2023-01-01T16:14:08;9.53;;;2.97;;
12986;SDS011;58897;51.960;5.582;2023-01-01T16:16:35;6.37;;;2.90;;
12986;SDS011;58897;51.960;5.582;2023-01-01T16:19:03;5.87;;;2.87;;
12986;SDS011;58897;51.960;5.582;2023-01-01T16:21:30;8.43;;;3.20;;
12986;SDS011;58897;51.960;5.582;2023-01-01T16:23:58;6.87;;;3.23;;
12986;SDS011;58897;51.960;5.582;2023-01-01T16:26:25;9.13;;;2.87;;
12986;SDS011;58897;51.960;5.582;2023-01-01T16:28:54;9.87;;;4.10;;
12986;SDS011;58897;51.960;5.582;2023-01-01T16:31:22;11.53;;;4.13;;
12986;SDS011;58897;51.960;5.582;2023-01-01T16:33:53;20.63;;;5.50;;
12986;SDS011;58897;51.960;5.582;2023-01-01T16:36:30;11.07;;;4.77;;
12986;SDS011;58897;51.960;5.582;2023-01-01T16:38:57;9.70;;;4.20;;
12986;SDS011;58897;51.960;5.582;2023-01-01T16:41:25;9.47;;;4.30;;
12986;SDS011;58897;51.960;5.582;2023-01-01T16:43:54;7.67;;;4.70;;
12986;SDS011;58897;51.960;5.582;2023-01-01T16:46:20;7.80;;;3.30;;
12986;SDS011;58897;51.960;5.582;2023-01-01T16:48:47;12.00;;;3.87;;
12986;SDS011;58897;51.960;5.582;2023-01-01T16:51:18;8.37;;;3.47;;
12986;SDS011;58897;51.960;5.582;2023-01-01T16:53:46;8.77;;;3.47;;
12986;SDS011;58897;51.960;5.582;2023-01-01T16:56:13;13.87;;;3.40;;
12986;SDS011;58897;51.960;5.582;2023-01-01T16:58:42;7.27;;;3.90;;
12986;SDS011;58897;51.960;5.582;2023-01-01T17:01:23;11.10;;;5.47;;
12986;SDS011;58897;51.960;5.582;2023-01-01T17:03:50;11.70;;;4.33;;
12986;SDS011;58897;51.960;5.582;2023-01-01T17:06:17;10.47;;;3.60;;
12986;SDS011;58897;51.960;5.582;2023-01-01T17:08:44;4.63;;;3.10;;